KLMT/LMT METAR and TAF weather

Enter ICAO airport designator
Station Type Date Time Source
KLMT METAR 2018/12/15 22:53 UTC NOAA

KLMT 152253Z 15012G16KT 10SM SCT095 07/03 A2996 RMK AO2 SLP153 T00670033


Station Type Date Time Source
KLMT Decoded METAR 2018/12/15 22:53 UTC NOAA

KLAMATH FALLS INTERNATIONAL AIRPORT, OR, United States (KLMT) 42-09N 121-43W 1246M
Dec 15, 2018 - 05:53 PM EST / 2018.12.15 2253 UTC
Wind: from the SSE (150 degrees) at 14 MPH (12 KT) gusting to 18 MPH (16 KT):0
Visibility: 10 mile(s):0
Sky conditions: partly cloudy
Temperature: 44.1 F (6.7 C)
Dew Point: 37.9 F (3.3 C)
Relative Humidity: 78%
Pressure (altimeter): 29.96 in. Hg (1014 hPa)
ob: KLMT 152253Z 15012G16KT 10SM SCT095 07/03 A2996 RMK AO2 SLP153 T00670033
cycle: 23

Station Type Date Time Source
KLMT TAF 2018/12/15 18:48 UTC NOAA

TAF KLMT 151747Z 1518/1618 14003KT P6SM BKN120 WS020/15025KT
FM152200 17013G20KT P6SM SCT060 BKN100
FM160200 18016G24KT P6SM OVC050
FM161200 16019KT P6SM -RA OVC050


Example: see airport list